Time;durP1;ratioP1;P1;durP2;ratioP2;P2;SDS_P1;SDS_P2;PMS_P1;PMS_P2;Temp;Humidity;BMP_temperature;BMP_pressure;BME280_temperature;BME280_humidity;BME280_pressure;Samples;Min_cycle;Max_cycle;Signal;HPM_P1;HPM_P2
2022/04/04 00:01:20;;;;;;;9.70;3.13;;;;;;;;;;5005212;28;20049;-74
2022/04/04 00:03:48;;;;;;;15.52;3.83;;;;;;;;;;5020150;28;20054;-80
2022/04/04 00:06:15;;;;;;;11.20;3.13;;;;;;;;;;5003961;28;20076;-74
2022/04/04 00:08:42;;;;;;;7.07;3.13;;;;;;;;;;5013750;28;20152;-80
2022/04/04 00:11:11;;;;;;;14.68;3.70;;;;;;;;;;5023307;28;20053;-80
2022/04/04 00:13:38;;;;;;;10.43;3.80;;;;;;;;;;5026353;28;20073;-80
2022/04/04 00:16:10;;;;;;;9.23;3.67;;;;;;;;;;5026701;28;20156;-80
2022/04/04 00:18:37;;;;;;;11.63;3.75;;;;;;;;;;5018548;28;20068;-80
2022/04/04 00:21:04;;;;;;;13.18;4.47;;;;;;;;;;5020900;28;20059;-74
2022/04/04 00:23:32;;;;;;;9.65;4.40;;;;;;;;;;5018261;28;20136;-74
2022/04/04 00:25:59;;;;;;;15.13;5.07;;;;;;;;;;4999029;28;20644;-74
2022/04/04 00:28:26;;;;;;;13.95;4.95;;;;;;;;;;5011688;28;21540;-74
2022/04/04 00:30:53;;;;;;;13.88;5.57;;;;;;;;;;5014130;28;20595;-74
2022/04/04 00:33:21;;;;;;;11.95;5.43;;;;;;;;;;5012389;28;20084;-74
2022/04/04 00:35:49;;;;;;;18.50;5.43;;;;;;;;;;5014751;28;20049;-74
2022/04/04 00:38:16;;;;;;;12.90;4.70;;;;;;;;;;5014477;28;20083;-74
2022/04/04 00:40:44;;;;;;;13.88;4.97;;;;;;;;;;5014294;28;20676;-73
2022/04/04 00:43:11;;;;;;;12.15;5.15;;;;;;;;;;5010285;28;20084;-74
2022/04/04 00:45:38;;;;;;;20.38;4.82;;;;;;;;;;5007088;28;20065;-74
2022/04/04 00:48:05;;;;;;;11.07;4.75;;;;;;;;;;5012915;28;20056;-74
2022/04/04 00:50:32;;;;;;;13.65;5.07;;;;;;;;;;5010933;28;20045;-74
2022/04/04 00:53:01;;;;;;;9.63;4.80;;;;;;;;;;5013605;28;20156;-73
2022/04/04 00:55:28;;;;;;;12.30;4.50;;;;;;;;;;5018064;28;20176;-74
2022/04/04 00:57:56;;;;;;;15.55;4.38;;;;;;;;;;5002925;28;20089;-74
2022/04/04 01:00:24;;;;;;;13.20;4.63;;;;;;;;;;5014894;28;20617;-73
2022/04/04 01:02:51;;;;;;;11.80;3.90;;;;;;;;;;5008198;28;20053;-73
2022/04/04 01:05:18;;;;;;;15.45;4.00;;;;;;;;;;5010872;28;20144;-74
2022/04/04 01:07:46;;;;;;;14.68;4.53;;;;;;;;;;5013344;28;20049;-73
2022/04/04 01:10:13;;;;;;;11.27;4.00;;;;;;;;;;5014222;28;20054;-74
2022/04/04 01:12:50;;;;;;;7.80;4.00;;;;;;;;;;5010867;28;20073;-73
2022/04/04 01:15:17;;;;;;;10.00;4.28;;;;;;;;;;5012346;28;20132;-73
2022/04/04 01:17:45;;;;;;;11.90;5.60;;;;;;;;;;5015105;28;20175;-73
2022/04/04 01:20:14;;;;;;;11.32;4.05;;;;;;;;;;5015829;28;20081;-78
2022/04/04 01:22:50;;;;;;;11.05;3.97;;;;;;;;;;5018768;28;20160;-80
2022/04/04 01:25:23;;;;;;;9.25;4.00;;;;;;;;;;5017355;28;20045;-79
2022/04/04 01:27:50;;;;;;;9.27;3.50;;;;;;;;;;5020894;28;20156;-79
2022/04/04 01:33:03;;;;;;;7.72;3.28;;;;;;;;;;5023599;28;20140;-79
2022/04/04 01:35:31;;;;;;;8.85;3.85;;;;;;;;;;4999362;28;20128;-79
2022/04/04 01:37:58;;;;;;;14.88;4.13;;;;;;;;;;5019051;28;20049;-80
2022/04/04 01:40:25;;;;;;;13.35;4.43;;;;;;;;;;5000064;28;20045;-78
2022/04/04 01:43:01;;;;;;;9.80;3.35;;;;;;;;;;5025082;28;21422;-79
2022/04/04 01:48:15;;;;;;;10.93;3.75;;;;;;;;;;5014292;28;21516;-73
2022/04/04 01:50:42;;;;;;;9.80;3.08;;;;;;;;;;4994562;28;20132;-73
2022/04/04 01:53:27;;;;;;;15.70;3.53;;;;;;;;;;5013607;28;20053;-73
2022/04/04 01:55:55;;;;;;;;;;;;;;;;;;5017159;28;20145;-79
2022/04/04 01:58:23;;;;;;;9.07;3.97;;;;;;;;;;5018848;28;19929;-79
2022/04/04 02:00:50;;;;;;;10.80;4.25;;;;;;;;;;5020156;28;20049;-79
2022/04/04 02:03:17;;;;;;;13.05;3.28;;;;;;;;;;5019063;28;20163;-78
2022/04/04 02:05:46;;;;;;;8.18;4.22;;;;;;;;;;5017761;28;20056;-78
2022/04/04 02:08:13;;;;;;;10.10;3.33;;;;;;;;;;5000083;28;20417;-79
2022/04/04 02:13:14;;;;;;;18.05;4.15;;;;;;;;;;4973051;28;20061;-79
2022/04/04 02:15:42;;;;;;;8.45;3.55;;;;;;;;;;4973313;28;20764;-79
2022/04/04 02:18:09;;;;;;;12.57;3.70;;;;;;;;;;4972089;28;20050;-79
2022/04/04 02:20:37;;;;;;;8.05;3.75;;;;;;;;;;4972881;28;20141;-74
2022/04/04 02:23:04;;;;;;;12.02;3.45;;;;;;;;;;4969049;28;20289;-73
2022/04/04 02:25:31;;;;;;;11.02;3.88;;;;;;;;;;4975216;28;20053;-73
2022/04/04 02:27:58;;;;;;;10.38;3.30;;;;;;;;;;4979980;28;20050;-79
2022/04/04 02:30:26;;;;;;;10.98;3.25;;;;;;;;;;4976819;28;20050;-79
2022/04/04 02:32:53;;;;;;;7.72;3.05;;;;;;;;;;4978153;28;20193;-79
2022/04/04 02:35:20;;;;;;;15.43;3.40;;;;;;;;;;5000917;28;20156;-79
2022/04/04 02:37:48;;;;;;;12.13;3.50;;;;;;;;;;4977584;28;20507;-79
2022/04/04 02:40:15;;;;;;;11.52;3.55;;;;;;;;;;4976171;28;20892;-79
2022/04/04 02:42:42;;;;;;;8.75;3.20;;;;;;;;;;4990708;28;20089;-79
2022/04/04 02:45:09;;;;;;;11.00;3.45;;;;;;;;;;4973632;28;20137;-74
2022/04/04 02:47:37;;;;;;;18.25;3.28;;;;;;;;;;4973425;28;20061;-74
2022/04/04 02:50:04;;;;;;;6.82;2.95;;;;;;;;;;4971262;28;20795;-74
2022/04/04 02:52:31;;;;;;;6.68;3.20;;;;;;;;;;4983499;28;20092;-73
2022/04/04 02:56:28;;;;;;;7.32;3.30;;;;;;;;;;4986967;28;20677;-79
2022/04/04 02:57:46;;;;;;;11.60;3.20;;;;;;;;;;4984053;28;20089;-79
2022/04/04 03:00:14;;;;;;;9.85;3.88;;;;;;;;;;4988319;28;20054;-79
2022/04/04 03:02:41;;;;;;;8.00;3.38;;;;;;;;;;4991685;28;20051;-79
2022/04/04 03:05:08;;;;;;;6.53;3.63;;;;;;;;;;4979286;28;20054;-78
2022/04/04 03:07:36;;;;;;;11.13;3.35;;;;;;;;;;4987097;28;20105;-78
2022/04/04 03:10:03;;;;;;;14.45;3.40;;;;;;;;;;4980618;28;20054;-78
2022/04/04 03:12:30;;;;;;;10.60;3.55;;;;;;;;;;4980687;28;20053;-74
2022/04/04 03:14:58;;;;;;;8.05;3.53;;;;;;;;;;4974461;28;20057;-73
2022/04/04 03:17:34;;;;;;;10.73;3.85;;;;;;;;;;4988571;28;20181;-74
2022/04/04 03:20:01;;;;;;;7.60;3.85;;;;;;;;;;4971426;28;20078;-73
2022/04/04 03:22:29;;;;;;;8.57;3.58;;;;;;;;;;4989009;28;20151;-79
2022/04/04 03:24:56;;;;;;;13.13;4.47;;;;;;;;;;4973079;28;20149;-73
2022/04/04 03:27:23;;;;;;;13.63;4.45;;;;;;;;;;4982520;28;20054;-73
2022/04/04 03:29:52;;;;;;;10.40;4.40;;;;;;;;;;4968347;28;20104;-73
2022/04/04 03:32:19;;;;;;;12.20;4.68;;;;;;;;;;4983137;28;20134;-73
2022/04/04 03:34:46;;;;;;;9.63;4.25;;;;;;;;;;4975931;28;20137;-74
2022/04/04 03:37:13;;;;;;;17.10;5.18;;;;;;;;;;4982999;28;20137;-74
2022/04/04 03:39:40;;;;;;;9.35;4.38;;;;;;;;;;4973630;28;20145;-73
2022/04/04 03:42:08;;;;;;;12.85;5.15;;;;;;;;;;4980323;28;20180;-74
2022/04/04 03:44:35;;;;;;;13.25;4.88;;;;;;;;;;4984569;28;20160;-74
2022/04/04 03:47:02;;;;;;;9.15;4.82;;;;;;;;;;4989602;28;20141;-74
2022/04/04 03:49:29;;;;;;;17.25;5.03;;;;;;;;;;4983268;28;20156;-74
2022/04/04 03:51:56;;;;;;;17.65;5.30;;;;;;;;;;4981254;28;20327;-74
2022/04/04 03:54:24;;;;;;;9.85;4.75;;;;;;;;;;4973869;28;20061;-74
2022/04/04 03:56:51;;;;;;;12.48;5.97;;;;;;;;;;4982698;28;20068;-73
2022/04/04 03:59:19;;;;;;;12.60;5.65;;;;;;;;;;4995902;28;20057;-73
2022/04/04 04:01:47;;;;;;;11.90;5.00;;;;;;;;;;4980997;28;20076;-74
2022/04/04 04:04:14;;;;;;;20.13;5.72;;;;;;;;;;4974339;28;20128;-74
2022/04/04 04:06:42;;;;;;;12.93;5.38;;;;;;;;;;4975151;28;20142;-74
2022/04/04 04:09:09;;;;;;;13.65;4.82;;;;;;;;;;4973060;28;20184;-74
2022/04/04 04:11:37;;;;;;;13.25;5.00;;;;;;;;;;4978505;28;20736;-74
2022/04/04 04:14:04;;;;;;;8.75;4.88;;;;;;;;;;4973829;28;20171;-74
2022/04/04 04:16:31;;;;;;;10.15;4.47;;;;;;;;;;4974606;28;20074;-73
2022/04/04 04:18:58;;;;;;;9.88;5.60;;;;;;;;;;4974122;28;20157;-73
2022/04/04 04:21:26;;;;;;;10.27;4.72;;;;;;;;;;4974135;28;20141;-73
2022/04/04 04:23:53;;;;;;;11.77;4.22;;;;;;;;;;4976806;28;20101;-74
2022/04/04 04:26:21;;;;;;;18.23;4.97;;;;;;;;;;4981510;28;20136;-74
2022/04/04 04:28:49;;;;;;;11.98;4.50;;;;;;;;;;4978789;28;20415;-73
2022/04/04 04:31:18;;;;;;;18.73;5.32;;;;;;;;;;4978909;28;20050;-73
2022/04/04 04:33:45;;;;;;;10.15;5.03;;;;;;;;;;4977380;28;20050;-74
2022/04/04 04:36:12;;;;;;;12.15;4.68;;;;;;;;;;4980751;28;20161;-73
2022/04/04 04:38:40;;;;;;;15.80;5.68;;;;;;;;;;4976701;28;20141;-73
2022/04/04 04:41:07;;;;;;;11.35;4.05;;;;;;;;;;4976509;28;20142;-73
2022/04/04 04:43:34;;;;;;;14.35;4.28;;;;;;;;;;4975758;28;20720;-74
2022/04/04 04:46:02;;;;;;;9.43;4.72;;;;;;;;;;4980378;28;20105;-74
2022/04/04 04:48:29;;;;;;;10.05;4.18;;;;;;;;;;4980521;28;20173;-74
2022/04/04 04:50:56;;;;;;;10.68;5.20;;;;;;;;;;4975769;28;20053;-74
2022/04/04 04:53:23;;;;;;;13.10;4.50;;;;;;;;;;4976615;28;20128;-74
2022/04/04 04:55:51;;;;;;;12.45;4.72;;;;;;;;;;4978182;28;20204;-74
2022/04/04 04:58:18;;;;;;;10.60;4.35;;;;;;;;;;4979017;28;21455;-74
2022/04/04 05:00:45;;;;;;;10.57;4.55;;;;;;;;;;4979005;28;20050;-74
2022/04/04 05:03:24;;;;;;;14.98;4.80;;;;;;;;;;4979576;28;20932;-74
2022/04/04 05:05:52;;;;;;;7.65;3.50;;;;;;;;;;4979966;28;20050;-73
2022/04/04 05:08:20;;;;;;;9.55;4.10;;;;;;;;;;4982603;28;20072;-74
2022/04/04 05:10:47;;;;;;;11.75;4.30;;;;;;;;;;4980048;28;20046;-74
2022/04/04 05:13:14;;;;;;;9.93;4.30;;;;;;;;;;4977202;28;20180;-73
2022/04/04 05:15:42;;;;;;;14.75;4.13;;;;;;;;;;4977732;28;20061;-74
2022/04/04 05:18:09;;;;;;;8.38;3.40;;;;;;;;;;4977334;28;20081;-73
2022/04/04 05:20:36;;;;;;;13.15;3.60;;;;;;;;;;4977789;28;20078;-74
2022/04/04 05:23:03;;;;;;;13.82;4.60;;;;;;;;;;4983488;28;20085;-73
2022/04/04 05:25:31;;;;;;;8.88;4.13;;;;;;;;;;4979204;28;20153;-80
2022/04/04 05:27:58;;;;;;;15.50;4.53;;;;;;;;;;4985925;28;20170;-81
2022/04/04 05:30:25;;;;;;;10.32;3.80;;;;;;;;;;4983114;28;20053;-73
2022/04/04 05:32:54;;;;;;;14.23;3.72;;;;;;;;;;4983055;28;20148;-83
2022/04/04 05:35:21;;;;;;;11.02;4.03;;;;;;;;;;4989202;28;20054;-83
2022/04/04 05:37:54;;;;;;;10.32;5.07;;;;;;;;;;4989093;28;20050;-82
2022/04/04 05:40:25;;;;;;;11.20;4.20;;;;;;;;;;4982233;28;20334;-81
2022/04/04 05:42:53;;;;;;;8.38;3.47;;;;;;;;;;4990431;28;20073;-80
2022/04/04 05:45:20;;;;;;;9.07;3.72;;;;;;;;;;4988847;28;20050;-81
2022/04/04 05:47:47;;;;;;;10.65;4.13;;;;;;;;;;4989264;28;20050;-82
2022/04/04 05:50:15;;;;;;;13.20;4.07;;;;;;;;;;4987618;28;20451;-82
2022/04/04 05:52:42;;;;;;;10.90;3.88;;;;;;;;;;4989345;28;20094;-82
2022/04/04 05:55:10;;;;;;;11.48;4.65;;;;;;;;;;4990604;28;20133;-82
2022/04/04 05:57:40;;;;;;;10.95;3.80;;;;;;;;;;4984851;28;20089;-74
2022/04/04 06:00:10;;;;;;;7.75;4.22;;;;;;;;;;4983459;28;20152;-74
2022/04/04 06:02:38;;;;;;;12.68;3.72;;;;;;;;;;4984162;28;20050;-74
2022/04/04 06:05:06;;;;;;;11.00;4.15;;;;;;;;;;4984074;28;20077;-75
2022/04/04 06:07:34;;;;;;;7.28;4.15;;;;;;;;;;4983726;28;20061;-74
2022/04/04 06:10:01;;;;;;;6.38;3.45;;;;;;;;;;4982444;28;20131;-74
2022/04/04 06:12:29;;;;;;;13.75;3.83;;;;;;;;;;4983886;28;20054;-74
2022/04/04 06:14:56;;;;;;;12.32;3.85;;;;;;;;;;4983811;28;20129;-74
2022/04/04 06:17:23;;;;;;;6.07;3.45;;;;;;;;;;4983920;28;20137;-75
2022/04/04 06:19:50;;;;;;;12.60;3.83;;;;;;;;;;4983959;28;20177;-75
2022/04/04 06:22:17;;;;;;;9.00;3.95;;;;;;;;;;4983585;28;20133;-74
2022/04/04 06:24:45;;;;;;;11.07;4.10;;;;;;;;;;4983794;28;20798;-74
2022/04/04 06:27:12;;;;;;;10.50;3.80;;;;;;;;;;4993705;28;20145;-74
2022/04/04 06:29:39;;;;;;;6.53;3.15;;;;;;;;;;4988667;28;20711;-74
2022/04/04 06:32:06;;;;;;;20.02;4.15;;;;;;;;;;4989437;28;20074;-82
2022/04/04 06:34:33;;;;;;;10.90;4.05;;;;;;;;;;4980974;28;20074;-82
2022/04/04 06:37:06;;;;;;;6.57;3.63;;;;;;;;;;4987127;28;20050;-82
2022/04/04 06:39:33;;;;;;;4.68;2.88;;;;;;;;;;4989213;28;20137;-82
2022/04/04 06:42:00;;;;;;;7.90;4.03;;;;;;;;;;4990380;28;20129;-83
2022/04/04 06:44:27;;;;;;;6.18;4.03;;;;;;;;;;4986131;28;20065;-74
2022/04/04 06:46:56;;;;;;;8.60;3.90;;;;;;;;;;4983340;28;20089;-74
2022/04/04 06:49:24;;;;;;;6.50;3.72;;;;;;;;;;4962596;28;20055;-74
2022/04/04 06:51:51;;;;;;;24.85;4.15;;;;;;;;;;4976930;28;20133;-74
2022/04/04 06:54:18;;;;;;;10.05;3.53;;;;;;;;;;4984147;28;20092;-74
2022/04/04 06:56:49;;;;;;;13.98;4.15;;;;;;;;;;4983003;28;20706;-74
2022/04/04 06:59:16;;;;;;;22.55;3.90;;;;;;;;;;4996309;28;20133;-74
2022/04/04 07:01:44;;;;;;;9.15;3.65;;;;;;;;;;4963043;28;20126;-74
2022/04/04 07:04:11;;;;;;;6.88;3.53;;;;;;;;;;4964443;28;20142;-74
2022/04/04 07:06:38;;;;;;;6.78;3.53;;;;;;;;;;4981385;28;20594;-74
2022/04/04 07:09:07;;;;;;;10.57;3.70;;;;;;;;;;4969131;28;20055;-74
2022/04/04 07:11:35;;;;;;;9.70;3.47;;;;;;;;;;4966664;28;20078;-74
2022/04/04 07:14:02;;;;;;;9.27;4.13;;;;;;;;;;4979567;28;20073;-81
2022/04/04 07:16:30;;;;;;;8.93;4.30;;;;;;;;;;4992950;28;20147;-81
2022/04/04 07:18:57;;;;;;;10.95;4.55;;;;;;;;;;4993433;28;20065;-82
2022/04/04 07:21:24;;;;;;;16.17;4.72;;;;;;;;;;4998674;28;20483;-81
2022/04/04 07:23:52;;;;;;;7.65;4.30;;;;;;;;;;4993169;28;20447;-82
2022/04/04 07:26:21;;;;;;;8.48;4.53;;;;;;;;;;4984104;28;20064;-81
2022/04/04 07:28:49;;;;;;;10.23;5.22;;;;;;;;;;4973501;28;20046;-82
2022/04/04 07:31:16;;;;;;;10.55;5.35;;;;;;;;;;4977413;28;20117;-74
2022/04/04 07:33:44;;;;;;;138.10;9.65;;;;;;;;;;4976860;28;20150;-75
2022/04/04 07:36:11;;;;;;;13.25;5.43;;;;;;;;;;4974521;28;20100;-75
2022/04/04 07:38:39;;;;;;;12.50;5.38;;;;;;;;;;4978114;28;20047;-74
2022/04/04 07:41:06;;;;;;;11.55;5.47;;;;;;;;;;4965447;28;20057;-75
2022/04/04 07:43:33;;;;;;;11.43;5.45;;;;;;;;;;4976303;28;20054;-82
2022/04/04 07:46:01;;;;;;;13.50;6.10;;;;;;;;;;4990537;28;20078;-81
2022/04/04 07:48:28;;;;;;;19.92;6.00;;;;;;;;;;4992806;28;20046;-82
2022/04/04 07:50:55;;;;;;;13.02;5.68;;;;;;;;;;4992378;28;20522;-82
2022/04/04 07:53:23;;;;;;;10.38;6.47;;;;;;;;;;4992207;28;20125;-82
2022/04/04 07:55:50;;;;;;;31.65;7.18;;;;;;;;;;4985939;28;20491;-80
2022/04/04 07:58:18;;;;;;;21.95;6.80;;;;;;;;;;4971849;28;20046;-80
2022/04/04 08:00:45;;;;;;;14.30;7.50;;;;;;;;;;4973091;28;20047;-80
2022/04/04 08:03:13;;;;;;;12.30;7.25;;;;;;;;;;4973567;28;20137;-80
2022/04/04 08:05:40;;;;;;;15.52;7.43;;;;;;;;;;4972361;28;20061;-81
2022/04/04 08:08:07;;;;;;;11.68;6.75;;;;;;;;;;4972040;28;20588;-81
2022/04/04 08:10:34;;;;;;;17.65;8.02;;;;;;;;;;4976521;28;20085;-80
2022/04/04 08:13:02;;;;;;;12.38;7.60;;;;;;;;;;4992753;28;20086;-81
2022/04/04 08:15:29;;;;;;;17.13;8.75;;;;;;;;;;4989535;28;20159;-81
2022/04/04 08:17:56;;;;;;;14.13;8.43;;;;;;;;;;4972731;28;20622;-81
2022/04/04 08:20:24;;;;;;;15.43;8.77;;;;;;;;;;4975203;28;20499;-82
2022/04/04 08:22:51;;;;;;;16.85;9.13;;;;;;;;;;4992190;28;20054;-82
2022/04/04 08:25:18;;;;;;;19.67;9.90;;;;;;;;;;4991187;28;20181;-83
2022/04/04 08:27:46;;;;;;;21.83;10.02;;;;;;;;;;4991287;28;20743;-82
2022/04/04 08:30:15;;;;;;;17.65;9.65;;;;;;;;;;4990183;28;20467;-82
2022/04/04 08:32:42;;;;;;;21.52;10.23;;;;;;;;;;4972922;28;20093;-82
2022/04/04 08:35:11;;;;;;;22.88;10.25;;;;;;;;;;4970842;28;20089;-81
2022/04/04 08:37:39;;;;;;;17.25;10.07;;;;;;;;;;4991769;28;20081;-81
2022/04/04 08:40:08;;;;;;;20.48;10.65;;;;;;;;;;4991710;28;20984;-81
2022/04/04 08:42:35;;;;;;;14.65;9.40;;;;;;;;;;4991424;28;20677;-81
2022/04/04 08:45:03;;;;;;;18.80;10.35;;;;;;;;;;4991468;28;20083;-82
2022/04/04 08:47:32;;;;;;;22.60;11.82;;;;;;;;;;4972622;28;20125;-81
2022/04/04 08:50:00;;;;;;;20.77;11.88;;;;;;;;;;4972169;28;20055;-81
2022/04/04 08:52:27;;;;;;;20.88;11.35;;;;;;;;;;4971005;28;20066;-81
2022/04/04 08:54:55;;;;;;;21.48;12.75;;;;;;;;;;4977611;28;20070;-80
2022/04/04 08:57:22;;;;;;;21.98;11.45;;;;;;;;;;4972605;28;20078;-81
2022/04/04 08:59:49;;;;;;;20.08;10.77;;;;;;;;;;4970323;28;20138;-81
2022/04/04 09:02:16;;;;;;;19.85;11.68;;;;;;;;;;4971051;28;20090;-82
2022/04/04 09:04:44;;;;;;;22.92;12.02;;;;;;;;;;4971337;28;20109;-82
2022/04/04 09:07:12;;;;;;;20.65;10.57;;;;;;;;;;4972478;28;20141;-82
2022/04/04 09:09:41;;;;;;;16.30;10.15;;;;;;;;;;4985068;28;20082;-82
2022/04/04 09:12:11;;;;;;;22.95;13.20;;;;;;;;;;4971023;28;20078;-83
2022/04/04 09:14:58;;;;;;;26.15;12.00;;;;;;;;;;4984521;28;20090;-82
2022/04/04 09:17:27;;;;;;;24.75;14.15;;;;;;;;;;4972435;28;20589;-82
2022/04/04 09:19:55;;;;;;;25.45;14.18;;;;;;;;;;4971668;28;20109;-83
2022/04/04 09:22:23;;;;;;;26.35;14.85;;;;;;;;;;4971740;28;20134;-82
2022/04/04 09:24:55;;;;;;;25.60;13.48;;;;;;;;;;4972409;28;20126;-83
2022/04/04 09:27:23;;;;;;;26.92;14.75;;;;;;;;;;4987450;28;20513;-82
2022/04/04 09:29:58;;;;;;;23.52;13.85;;;;;;;;;;4990982;28;20058;-82
2022/04/04 09:32:37;;;;;;;29.57;16.77;;;;;;;;;;4971501;28;20051;-82
2022/04/04 09:35:09;;;;;;;29.20;15.88;;;;;;;;;;4970777;28;20445;-83
2022/04/04 09:37:38;;;;;;;28.30;16.85;;;;;;;;;;4989132;28;20054;-83
2022/04/04 09:40:07;;;;;;;27.67;14.82;;;;;;;;;;4989415;28;20047;-83
2022/04/04 09:42:51;;;;;;;27.60;14.48;;;;;;;;;;4990760;28;20696;-83
2022/04/04 09:45:20;;;;;;;25.95;16.17;;;;;;;;;;4990811;28;20049;-83
2022/04/04 09:48:04;;;;;;;28.65;17.67;;;;;;;;;;4989273;28;20050;-83
2022/04/04 09:50:35;;;;;;;28.35;18.50;;;;;;;;;;4990163;28;20759;-84
2022/04/04 09:53:10;;;;;;;27.92;18.27;;;;;;;;;;4989290;28;20514;-84
2022/04/04 09:55:39;;;;;;;32.72;18.08;;;;;;;;;;4990062;28;20133;-84
2022/04/04 09:58:07;;;;;;;27.98;16.60;;;;;;;;;;4990091;28;20078;-84
2022/04/04 10:00:38;;;;;;;29.67;18.75;;;;;;;;;;4989041;28;20085;-84
2022/04/04 10:03:12;;;;;;;30.75;17.80;;;;;;;;;;4990104;28;20100;-85
2022/04/04 10:05:47;;;;;;;34.22;19.38;;;;;;;;;;4990124;28;20105;-84
2022/04/04 10:08:17;;;;;;;29.02;18.58;;;;;;;;;;4989172;28;20158;-85
2022/04/04 10:10:45;;;;;;;28.50;17.95;;;;;;;;;;4989601;28;20054;-84
2022/04/04 10:13:15;;;;;;;30.35;18.30;;;;;;;;;;4986450;28;20137;-74
2022/04/04 10:15:43;;;;;;;30.38;18.00;;;;;;;;;;4984234;28;20038;-74
2022/04/04 10:18:11;;;;;;;36.15;19.17;;;;;;;;;;4984076;28;20088;-74
2022/04/04 10:20:38;;;;;;;27.73;16.98;;;;;;;;;;4983632;28;20157;-74
2022/04/04 10:23:07;;;;;;;29.30;18.38;;;;;;;;;;4983138;28;20141;-74
2022/04/04 10:25:34;;;;;;;36.88;19.02;;;;;;;;;;4983914;28;20170;-74
2022/04/04 10:28:01;;;;;;;33.42;19.48;;;;;;;;;;4982811;28;20077;-75
2022/04/04 10:30:32;;;;;;;29.48;18.08;;;;;;;;;;4983222;28;20995;-75
2022/04/04 10:32:59;;;;;;;30.13;18.42;;;;;;;;;;4983954;28;20101;-75
2022/04/04 10:35:27;;;;;;;31.17;17.45;;;;;;;;;;4982479;28;20740;-75
2022/04/04 10:37:57;;;;;;;27.02;16.90;;;;;;;;;;4981803;28;20582;-76
2022/04/04 10:40:29;;;;;;;35.25;18.45;;;;;;;;;;4982203;28;20709;-76
2022/04/04 10:43:15;;;;;;;32.95;18.70;;;;;;;;;;4963908;28;20082;-76
2022/04/04 10:45:50;;;;;;;33.20;18.00;;;;;;;;;;4965598;28;20050;-75
2022/04/04 10:48:19;;;;;;;33.13;18.70;;;;;;;;;;4968289;28;20559;-76
2022/04/04 10:50:46;;;;;;;36.58;19.48;;;;;;;;;;4971063;28;20710;-76
2022/04/04 10:53:14;;;;;;;37.15;18.63;;;;;;;;;;4988473;28;20108;-76
2022/04/04 10:55:48;;;;;;;30.90;18.35;;;;;;;;;;4986524;28;20149;-76
2022/04/04 10:58:21;;;;;;;33.75;18.52;;;;;;;;;;4973040;28;20134;-76
2022/04/04 11:00:58;;;;;;;36.40;20.13;;;;;;;;;;4969069;28;20474;-76
2022/04/04 11:03:29;;;;;;;34.97;19.95;;;;;;;;;;4968195;28;20609;-76
2022/04/04 11:09:04;;;;;;;30.08;17.80;;;;;;;;;;4977471;28;20137;-76
2022/04/04 11:11:52;;;;;;;39.88;19.40;;;;;;;;;;4977173;28;20138;-76
2022/04/04 11:14:36;;;;;;;34.00;17.48;;;;;;;;;;4984104;28;20612;-76
2022/04/04 11:17:06;;;;;;;29.00;15.45;;;;;;;;;;4988304;28;20073;-75
2022/04/04 11:19:44;;;;;;;35.70;16.92;;;;;;;;;;4985946;28;20134;-76
2022/04/04 11:22:19;;;;;;;30.95;16.85;;;;;;;;;;4985614;28;20148;-76
2022/04/04 11:24:51;;;;;;;25.38;14.63;;;;;;;;;;4987493;28;20145;-76
2022/04/04 11:27:19;;;;;;;32.63;17.75;;;;;;;;;;4970022;28;20059;-76
2022/04/04 11:29:47;;;;;;;28.33;15.77;;;;;;;;;;4967288;28;20776;-76
2022/04/04 11:32:16;;;;;;;33.35;17.63;;;;;;;;;;4985034;28;20078;-76
2022/04/04 11:34:44;;;;;;;32.15;16.30;;;;;;;;;;4987874;28;20052;-76
2022/04/04 11:37:17;;;;;;;33.25;18.02;;;;;;;;;;4969336;28;20063;-76
2022/04/04 11:39:45;;;;;;;34.15;18.20;;;;;;;;;;4967539;28;20462;-76
2022/04/04 11:42:13;;;;;;;36.53;18.13;;;;;;;;;;4966064;28;20133;-76
2022/04/04 11:44:47;;;;;;;31.70;17.42;;;;;;;;;;4968168;28;20161;-84
2022/04/04 11:47:16;;;;;;;36.60;18.47;;;;;;;;;;4974113;28;20390;-82
2022/04/04 11:49:44;;;;;;;27.77;15.80;;;;;;;;;;4969958;28;20416;-76
2022/04/04 11:52:16;;;;;;;31.98;15.23;;;;;;;;;;4983429;28;20054;-75
2022/04/04 11:54:44;;;;;;;35.58;17.27;;;;;;;;;;4985444;28;20057;-75
2022/04/04 11:57:11;;;;;;;29.50;16.30;;;;;;;;;;4983699;28;20133;-76
2022/04/04 11:59:43;;;;;;;28.75;16.40;;;;;;;;;;4982743;28;20070;-75
2022/04/04 12:02:11;;;;;;;41.70;16.98;;;;;;;;;;4966593;28;20149;-76
2022/04/04 12:04:39;;;;;;;29.17;15.52;;;;;;;;;;4970567;28;20141;-76
2022/04/04 12:07:07;;;;;;;28.42;16.70;;;;;;;;;;4972454;28;20134;-76
2022/04/04 12:09:35;;;;;;;28.13;14.82;;;;;;;;;;4967648;28;20145;-76
2022/04/04 12:12:07;;;;;;;25.73;13.10;;;;;;;;;;4982770;28;20105;-76
2022/04/04 12:14:37;;;;;;;27.67;14.27;;;;;;;;;;4985767;28;20062;-76
2022/04/04 12:17:05;;;;;;;26.60;15.35;;;;;;;;;;4975603;28;20086;-83
2022/04/04 12:19:40;;;;;;;30.85;15.93;;;;;;;;;;4972099;28;20101;-75
2022/04/04 12:24:55;;;;;;;;;;;;;;;;;;4982816;28;20124;-75
2022/04/04 12:24:55;;;;;;;23.30;12.63;;;;;;;;;;4970674;28;20430;-75
2022/04/04 12:27:24;;;;;;;38.00;16.23;;;;;;;;;;4983642;28;20089;-75
2022/04/04 12:29:58;;;;;;;25.55;14.80;;;;;;;;;;4986304;28;20141;-76
2022/04/04 12:32:25;;;;;;;28.92;15.77;;;;;;;;;;4986201;28;20093;-76
2022/04/04 12:34:56;;;;;;;23.98;14.25;;;;;;;;;;4986209;28;20050;-75
2022/04/04 12:37:52;;;;;;;26.33;14.35;;;;;;;;;;4981764;28;20150;-75
2022/04/04 12:40:21;;;;;;;27.45;14.60;;;;;;;;;;4957630;28;20133;-76
2022/04/04 12:42:49;;;;;;;24.65;13.73;;;;;;;;;;4964523;28;20117;-75
2022/04/04 12:45:18;;;;;;;23.35;13.35;;;;;;;;;;4968464;28;20452;-75
2022/04/04 12:47:54;;;;;;;25.70;14.80;;;;;;;;;;4986044;28;20101;-76
2022/04/04 12:50:25;;;;;;;25.10;13.68;;;;;;;;;;4986417;28;20441;-75
2022/04/04 12:52:56;;;;;;;24.08;14.88;;;;;;;;;;4985752;28;20144;-75
2022/04/04 12:55:23;;;;;;;26.83;15.48;;;;;;;;;;4985684;28;20054;-76
2022/04/04 12:57:50;;;;;;;25.10;12.48;;;;;;;;;;4984907;28;20583;-76
2022/04/04 13:00:28;;;;;;;26.75;15.02;;;;;;;;;;4989058;28;20057;-83
2022/04/04 13:02:56;;;;;;;27.98;14.70;;;;;;;;;;4971782;28;20546;-85
2022/04/04 13:05:24;;;;;;;24.50;14.57;;;;;;;;;;4970803;28;20113;-84
2022/04/04 13:07:53;;;;;;;22.95;14.35;;;;;;;;;;4974130;28;20117;-84
2022/04/04 13:10:24;;;;;;;30.00;14.90;;;;;;;;;;4989909;28;20108;-83
2022/04/04 13:13:07;;;;;;;26.77;14.77;;;;;;;;;;4991265;28;20062;-83
2022/04/04 13:15:35;;;;;;;23.02;12.55;;;;;;;;;;4990962;28;20085;-84
2022/04/04 13:18:03;;;;;;;23.50;13.75;;;;;;;;;;4971797;28;20088;-84
2022/04/04 13:20:30;;;;;;;27.25;14.70;;;;;;;;;;4974287;28;20100;-84
2022/04/04 13:22:58;;;;;;;24.48;14.70;;;;;;;;;;4991215;28;20077;-84
2022/04/04 13:25:25;;;;;;;24.40;13.15;;;;;;;;;;4983166;28;20051;-74
2022/04/04 13:27:52;;;;;;;28.50;14.35;;;;;;;;;;4965368;28;20153;-74
2022/04/04 13:30:19;;;;;;;21.33;11.25;;;;;;;;;;4965142;28;20153;-74
2022/04/04 13:32:47;;;;;;;31.55;15.48;;;;;;;;;;4964134;28;20042;-74
2022/04/04 13:35:14;;;;;;;26.45;14.70;;;;;;;;;;4964223;28;20483;-74
2022/04/04 13:37:41;;;;;;;25.98;14.45;;;;;;;;;;4971179;28;20573;-74
2022/04/04 13:40:09;;;;;;;22.05;13.35;;;;;;;;;;4983142;28;20129;-74
2022/04/04 13:42:37;;;;;;;19.98;12.25;;;;;;;;;;4984211;28;20074;-74
2022/04/04 13:45:05;;;;;;;22.45;12.82;;;;;;;;;;4984607;28;20226;-74
2022/04/04 13:47:36;;;;;;;22.65;13.77;;;;;;;;;;4965310;28;20058;-74
2022/04/04 13:50:04;;;;;;;23.23;13.27;;;;;;;;;;4963968;28;20097;-74
2022/04/04 13:52:31;;;;;;;21.88;11.55;;;;;;;;;;4991607;28;20109;-74
2022/04/04 13:55:05;;;;;;;23.55;13.80;;;;;;;;;;4982903;28;20074;-75
2022/04/04 13:57:33;;;;;;;23.42;13.10;;;;;;;;;;4964934;28;20086;-74
2022/04/04 14:00:00;;;;;;;21.80;11.52;;;;;;;;;;4975948;28;20197;-74
2022/04/04 14:02:27;;;;;;;25.70;13.73;;;;;;;;;;4981965;28;20697;-75
2022/04/04 14:04:54;;;;;;;23.15;14.38;;;;;;;;;;4984076;28;20183;-75
2022/04/04 14:07:22;;;;;;;23.27;13.55;;;;;;;;;;4997365;28;20054;-76
2022/04/04 14:09:49;;;;;;;22.35;12.82;;;;;;;;;;4963572;28;20926;-75
2022/04/04 14:12:17;;;;;;;26.27;14.18;;;;;;;;;;4980079;28;20567;-75
2022/04/04 14:14:44;;;;;;;23.83;13.35;;;;;;;;;;4983718;28;20129;-74
2022/04/04 14:17:13;;;;;;;19.33;10.90;;;;;;;;;;4982347;28;20086;-74
2022/04/04 14:19:40;;;;;;;20.10;12.70;;;;;;;;;;4983773;28;20054;-75
2022/04/04 14:22:08;;;;;;;21.80;13.38;;;;;;;;;;4981155;28;20137;-82
2022/04/04 14:24:35;;;;;;;17.48;11.48;;;;;;;;;;4969007;28;20086;-82
2022/04/04 14:27:03;;;;;;;19.67;12.65;;;;;;;;;;4986919;28;20132;-81
2022/04/04 14:29:30;;;;;;;22.73;13.25;;;;;;;;;;4988683;28;20518;-82
2022/04/04 14:31:57;;;;;;;20.45;11.60;;;;;;;;;;4988814;28;20086;-82
2022/04/04 14:34:24;;;;;;;19.30;11.18;;;;;;;;;;4990324;28;20056;-81
2022/04/04 14:36:52;;;;;;;14.48;9.70;;;;;;;;;;4980166;28;20097;-81
2022/04/04 14:39:19;;;;;;;17.02;10.85;;;;;;;;;;4969433;28;20130;-82
2022/04/04 14:41:48;;;;;;;21.98;12.25;;;;;;;;;;4984200;28;20085;-81
2022/04/04 14:44:16;;;;;;;19.58;11.30;;;;;;;;;;4989561;28;20750;-81
2022/04/04 14:46:43;;;;;;;19.20;10.98;;;;;;;;;;4988577;28;20071;-82
2022/04/04 14:49:12;;;;;;;18.77;11.25;;;;;;;;;;4988434;28;20057;-83